createdAt,value
2023-02-08T07:55:02.185Z,67.52
2023-02-08T07:57:29.511Z,67.22
2023-02-08T07:59:56.830Z,66.65
2023-02-08T08:02:24.158Z,66.79
2023-02-08T08:04:54.111Z,66.50
2023-02-08T08:07:21.437Z,66.05
2023-02-08T08:09:48.756Z,65.93
2023-02-08T08:12:16.046Z,65.50
2023-02-08T08:14:43.328Z,65.75
2023-02-08T08:17:10.657Z,65.34
2023-02-08T08:19:38.491Z,65.23
2023-02-08T08:22:05.876Z,65.55
2023-02-08T08:24:35.659Z,65.48
2023-02-08T08:27:05.867Z,64.79
2023-02-08T08:29:36.787Z,64.89
2023-02-08T08:32:05.165Z,64.61
2023-02-08T08:34:32.605Z,64.55
2023-02-08T08:37:02.653Z,64.47
2023-02-08T08:39:30.106Z,64.41
2023-02-08T08:42:04.052Z,63.89
2023-02-08T08:44:31.765Z,63.69
2023-02-08T08:47:01.280Z,63.85
2023-02-08T08:49:29.813Z,62.82
2023-02-08T08:51:58.196Z,62.61
2023-02-08T08:54:25.506Z,62.01
2023-02-08T08:56:52.914Z,61.05
2023-02-08T08:59:20.397Z,61.57
2023-02-08T09:01:47.730Z,60.79
2023-02-08T09:04:15.187Z,61.02
2023-02-08T09:06:42.554Z,60.74
2023-02-08T09:09:10.890Z,60.21
2023-02-08T09:11:38.591Z,60.48
2023-02-08T09:14:06.263Z,60.65
2023-02-08T09:16:34.183Z,58.94
2023-02-08T09:19:08.774Z,57.90
2023-02-08T09:21:37.100Z,57.68
2023-02-08T09:24:05.295Z,55.68
2023-02-08T09:26:33.182Z,55.40
2023-02-08T09:29:01.002Z,54.65
2023-02-08T09:31:36.564Z,53.85
2023-02-08T09:34:06.737Z,54.48
2023-02-08T09:36:40.039Z,53.97
2023-02-08T09:39:19.335Z,53.78
2023-02-08T09:42:43.607Z,52.21
2023-02-08T09:46:00.456Z,51.31
2023-02-08T09:48:40.712Z,50.79
2023-02-08T09:51:25.220Z,49.86
2023-02-08T09:54:22.602Z,47.86
2023-02-08T09:56:52.099Z,48.01
2023-02-08T09:59:29.899Z,48.46
2023-02-08T10:02:27.319Z,44.65
2023-02-08T10:05:06.506Z,46.99
2023-02-08T10:07:34.981Z,47.49
2023-02-08T10:10:22.762Z,46.53
2023-02-08T10:13:48.049Z,45.45
2023-02-08T10:16:59.902Z,43.07
2023-02-08T10:20:46.194Z,43.83
2023-02-08T10:24:23.419Z,40.62
2023-02-08T10:27:22.171Z,36.63
2023-02-08T10:30:40.247Z,36.02
2023-02-08T10:33:37.564Z,35.28
2023-02-08T10:36:31.042Z,35.05
2023-02-08T10:39:00.666Z,35.91
2023-02-08T10:41:36.910Z,34.75
2023-02-08T10:44:42.362Z,33.25
2023-02-08T10:47:49.585Z,33.80
2023-02-08T10:50:42.207Z,33.75
2023-02-08T10:53:18.657Z,33.95
2023-02-08T10:55:49.066Z,34.13
2023-02-08T10:58:24.331Z,33.67
2023-02-08T11:00:52.086Z,33.73
2023-02-08T11:03:30.454Z,33.52
2023-02-08T11:05:57.753Z,32.78
2023-02-08T11:08:29.145Z,32.54
2023-02-08T11:11:10.447Z,32.09
2023-02-08T11:13:51.445Z,31.93
2023-02-08T11:16:27.413Z,32.02
2023-02-08T11:18:59.410Z,31.38
2023-02-08T11:21:40.346Z,31.17
2023-02-08T11:24:50.150Z,30.77
2023-02-08T11:27:33.507Z,30.71
2023-02-08T11:30:16.199Z,30.16
2023-02-08T11:32:48.946Z,30.79
2023-02-08T11:35:25.933Z,29.99
2023-02-08T11:37:59.436Z,29.74
2023-02-08T11:40:44.227Z,29.34
2023-02-08T11:43:35.160Z,28.48
2023-02-08T11:46:05.586Z,28.13
2023-02-08T11:48:49.161Z,28.09
2023-02-08T11:51:46.380Z,28.29
2023-02-08T11:54:42.119Z,27.80
2023-02-08T11:57:27.822Z,27.68
2023-02-08T12:00:31.298Z,26.94
2023-02-08T12:03:06.130Z,27.24
2023-02-08T12:06:51.064Z,26.85
2023-02-08T12:09:30.179Z,28.06
2023-02-08T12:12:41.105Z,27.19
2023-02-08T12:15:51.375Z,27.40
2023-02-08T12:19:10.685Z,26.38
2023-02-08T12:21:49.981Z,27.02
2023-02-08T12:24:59.450Z,26.81
2023-02-08T12:28:06.903Z,26.87
2023-02-08T12:31:04.497Z,26.63
2023-02-08T12:33:52.524Z,26.78
2023-02-08T12:37:13.858Z,26.66
2023-02-08T12:40:48.980Z,25.69
2023-02-08T12:44:02.249Z,25.09
2023-02-08T12:47:03.723Z,26.28
2023-02-08T12:50:48.626Z,25.05
2023-02-08T12:53:39.799Z,26.15
2023-02-08T12:56:20.118Z,25.80
2023-02-08T12:58:59.136Z,26.10
2023-02-08T13:01:48.516Z,26.04
2023-02-08T13:04:33.072Z,26.20
2023-02-08T13:07:38.853Z,26.30
2023-02-08T13:10:36.396Z,25.41
2023-02-08T13:13:31.364Z,26.10
2023-02-08T13:16:27.781Z,25.36
2023-02-08T13:20:07.077Z,25.86
2023-02-08T13:22:42.229Z,27.00
2023-02-08T13:25:36.798Z,26.83
2023-02-08T13:28:11.071Z,28.58
2023-02-08T13:30:40.638Z,28.55
2023-02-08T13:33:27.195Z,29.02
2023-02-08T13:35:54.779Z,29.29
2023-02-08T13:38:36.618Z,29.07
2023-02-08T13:41:21.974Z,28.99
2023-02-08T13:44:37.119Z,29.67
2023-02-08T13:47:07.604Z,30.59
2023-02-08T13:49:49.724Z,30.64
2023-02-08T13:52:48.125Z,30.67
2023-02-08T13:55:31.990Z,30.89
2023-02-08T13:58:37.012Z,31.63
2023-02-08T14:01:31.380Z,31.77
2023-02-08T14:04:07.727Z,32.19
2023-02-08T14:07:40.634Z,32.70
2023-02-08T14:10:51.585Z,32.98
2023-02-08T14:13:58.021Z,33.12
2023-02-08T14:16:42.073Z,33.15
2023-02-08T14:19:18.540Z,33.73
2023-02-08T14:22:18.753Z,34.41
2023-02-08T14:25:19.889Z,34.79
2023-02-08T14:28:02.398Z,34.26
2023-02-08T14:30:38.657Z,34.76
2023-02-08T14:33:08.625Z,35.36
2023-02-08T14:36:05.505Z,35.07
2023-02-08T14:39:30.467Z,34.93
2023-02-08T14:42:06.181Z,35.44
2023-02-08T14:44:39.459Z,35.48
2023-02-08T14:47:24.742Z,34.74
2023-02-08T14:50:32.713Z,35.26
2023-02-08T14:53:37.278Z,35.18
2023-02-08T14:56:44.366Z,35.60
2023-02-08T14:59:19.350Z,35.77
2023-02-08T15:02:02.840Z,35.64
2023-02-08T15:04:31.039Z,35.52
2023-02-08T15:07:47.157Z,36.45
2023-02-08T15:10:18.847Z,36.47
2023-02-08T15:13:00.634Z,36.46
2023-02-08T15:15:39.096Z,36.91
2023-02-08T15:18:24.052Z,36.79
2023-02-08T15:21:15.273Z,36.60
2023-02-08T15:23:42.602Z,37.01
2023-02-08T15:26:24.144Z,37.33
2023-02-08T15:28:52.210Z,37.36
2023-02-08T15:31:28.611Z,37.50
2023-02-08T15:33:56.015Z,37.46
2023-02-08T15:36:36.220Z,38.08
2023-02-08T15:39:35.993Z,37.78
2023-02-08T15:42:03.454Z,38.02
2023-02-08T15:44:35.021Z,38.31
2023-02-08T15:47:13.346Z,37.88
2023-02-08T15:49:49.015Z,37.88
2023-02-08T15:52:24.757Z,37.90
2023-02-08T15:54:52.341Z,37.93
2023-02-08T15:58:15.923Z,37.53
2023-02-08T16:00:45.990Z,38.03
2023-02-08T16:03:23.764Z,37.75
2023-02-08T16:05:59.513Z,37.89
2023-02-08T16:08:42.694Z,38.38
2023-02-08T16:11:31.793Z,38.86
2023-02-08T16:14:03.069Z,38.65
2023-02-08T16:16:41.882Z,38.53
2023-02-08T16:19:33.667Z,39.47
2023-02-08T16:22:13.022Z,39.34
2023-02-08T16:24:40.372Z,39.53
2023-02-08T16:27:27.313Z,39.98
2023-02-08T16:29:55.093Z,40.23
2023-02-08T16:32:39.680Z,40.46
2023-02-08T16:35:29.602Z,40.43
2023-02-08T16:38:02.766Z,40.90
2023-02-08T16:41:11.934Z,41.00
2023-02-08T16:43:47.865Z,41.53
2023-02-08T16:46:24.519Z,41.45
2023-02-08T16:48:58.421Z,41.63
2023-02-08T16:51:31.866Z,41.86
2023-02-08T16:54:07.648Z,41.75
2023-02-08T16:56:39.819Z,41.46
2023-02-08T16:59:08.011Z,41.79
2023-02-08T17:01:38.137Z,41.76
2023-02-08T17:04:06.363Z,41.91
2023-02-08T17:06:38.231Z,42.45
2023-02-08T17:09:09.104Z,42.45
2023-02-08T17:11:37.882Z,42.44
2023-02-08T17:14:07.847Z,42.18
2023-02-08T17:16:38.274Z,42.08
2023-02-08T17:19:06.032Z,42.20
2023-02-08T17:21:35.585Z,42.53
2023-02-08T17:24:03.203Z,42.61
2023-02-08T17:26:40.896Z,43.03
2023-02-08T17:29:08.337Z,42.66
2023-02-08T17:31:35.869Z,43.05
2023-02-08T17:34:05.974Z,43.33
2023-02-08T17:36:37.114Z,42.97
2023-02-08T17:39:06.457Z,43.57
2023-02-08T17:41:33.839Z,43.68
2023-02-08T17:44:01.822Z,44.22
2023-02-08T17:46:32.769Z,43.99
2023-02-08T17:49:01.713Z,44.25
2023-02-08T17:51:30.678Z,43.96
2023-02-08T17:53:58.064Z,44.26
2023-02-08T17:56:31.159Z,44.29
2023-02-08T17:59:00.876Z,44.67
2023-02-08T18:01:28.199Z,44.83
2023-02-08T18:03:57.098Z,44.59
2023-02-08T18:06:25.187Z,44.73
2023-02-08T18:08:55.050Z,45.95
2023-02-08T18:11:24.048Z,45.52
2023-02-08T18:13:54.310Z,45.64
2023-02-08T18:16:27.190Z,45.54
2023-02-08T18:19:01.195Z,45.80
2023-02-08T18:21:33.121Z,46.46
2023-02-08T18:24:07.066Z,46.41
2023-02-08T18:26:36.035Z,46.92
2023-02-08T18:29:04.582Z,47.46
2023-02-08T18:31:32.662Z,47.44
2023-02-08T18:34:00.143Z,47.37
2023-02-08T18:36:27.555Z,47.74
2023-02-08T18:38:56.949Z,47.99
2023-02-08T18:41:29.339Z,47.55
2023-02-08T18:43:59.335Z,47.54
2023-02-08T18:46:29.598Z,48.05
2023-02-08T18:48:57.670Z,48.53
2023-02-08T18:51:27.384Z,48.18
2023-02-08T18:53:56.075Z,48.30
2023-02-08T18:56:27.984Z,48.30
2023-02-08T18:59:00.680Z,48.81
2023-02-08T19:01:28.140Z,48.63
2023-02-08T19:03:56.029Z,48.31
2023-02-08T19:06:28.583Z,48.73
2023-02-08T19:09:01.619Z,48.85
2023-02-08T19:11:39.383Z,48.89
2023-02-08T19:14:14.724Z,48.71
2023-02-08T19:16:43.186Z,49.02
2023-02-08T19:19:11.231Z,49.31
2023-02-08T19:21:39.705Z,49.75
2023-02-08T19:24:07.500Z,49.18
2023-02-08T19:26:39.885Z,49.90
2023-02-08T19:29:15.912Z,50.14
2023-02-08T19:31:45.012Z,49.63
2023-02-08T19:34:12.927Z,49.56
2023-02-08T19:36:52.017Z,49.63
2023-02-08T19:39:27.715Z,49.64
2023-02-08T19:41:58.407Z,49.87
2023-02-08T19:44:27.277Z,50.08
2023-02-08T19:46:56.203Z,49.74
2023-02-08T19:49:26.210Z,49.66
2023-02-08T19:51:54.443Z,49.76
2023-02-08T19:54:22.616Z,49.92
2023-02-08T19:56:50.434Z,50.16
2023-02-08T19:59:34.143Z,50.75
2023-02-08T20:02:15.555Z,50.57
2023-02-08T20:04:42.909Z,50.82
2023-02-08T20:07:10.556Z,51.75
2023-02-08T20:09:38.240Z,50.97
2023-02-08T20:12:06.151Z,51.20
2023-02-08T20:14:34.607Z,52.00
2023-02-08T20:17:03.532Z,51.45
2023-02-08T20:19:31.015Z,51.02
2023-02-08T20:21:58.354Z,51.66
2023-02-08T20:24:26.578Z,51.51
2023-02-08T20:26:54.230Z,52.04
2023-02-08T20:29:21.723Z,52.51
2023-02-08T20:31:53.516Z,52.43
2023-02-08T20:34:21.617Z,52.11
2023-02-08T20:37:05.669Z,52.46
2023-02-08T20:39:37.076Z,52.17
2023-02-08T20:42:05.498Z,52.65
2023-02-08T20:44:32.839Z,52.48
2023-02-08T20:47:00.648Z,52.55
2023-02-08T20:49:29.367Z,53.17
2023-02-08T20:51:56.793Z,53.62
2023-02-08T20:54:25.345Z,53.36
2023-02-08T20:56:54.263Z,52.50
2023-02-08T20:59:22.557Z,52.85
2023-02-08T21:01:51.533Z,53.29
2023-02-08T21:04:23.264Z,53.20
